sensor_id;sensor_type;location;lat;lon;timestamp;temperature;humidity
8103;DHT22;4094;49.948;11.574;2023-03-14T00:00:44;13.60;76.80
8103;DHT22;4094;49.948;11.574;2023-03-14T00:03:13;13.60;76.90
8103;DHT22;4094;49.948;11.574;2023-03-14T00:05:43;13.60;76.80
8103;DHT22;4094;49.948;11.574;2023-03-14T00:08:12;13.60;76.70
8103;DHT22;4094;49.948;11.574;2023-03-14T00:10:41;13.60;76.70
8103;DHT22;4094;49.948;11.574;2023-03-14T00:13:12;13.60;76.70
8103;DHT22;4094;49.948;11.574;2023-03-14T00:15:41;13.50;76.50
8103;DHT22;4094;49.948;11.574;2023-03-14T00:18:10;13.50;76.60
8103;DHT22;4094;49.948;11.574;2023-03-14T00:20:39;13.50;76.50
8103;DHT22;4094;49.948;11.574;2023-03-14T00:23:09;13.60;76.50
8103;DHT22;4094;49.948;11.574;2023-03-14T00:25:38;13.50;76.50
8103;DHT22;4094;49.948;11.574;2023-03-14T00:28:07;13.50;76.50
8103;DHT22;4094;49.948;11.574;2023-03-14T00:30:38;13.50;76.40
8103;DHT22;4094;49.948;11.574;2023-03-14T00:33:09;13.50;76.40
8103;DHT22;4094;49.948;11.574;2023-03-14T00:35:38;13.50;76.40
8103;DHT22;4094;49.948;11.574;2023-03-14T00:38:08;13.50;76.30
8103;DHT22;4094;49.948;11.574;2023-03-14T00:40:39;13.50;76.30
8103;DHT22;4094;49.948;11.574;2023-03-14T00:43:08;13.50;76.20
8103;DHT22;4094;49.948;11.574;2023-03-14T00:45:38;13.50;76.10
8103;DHT22;4094;49.948;11.574;2023-03-14T00:48:08;13.40;76.10
8103;DHT22;4094;49.948;11.574;2023-03-14T00:50:37;13.40;76.10
8103;DHT22;4094;49.948;11.574;2023-03-14T00:53:08;13.40;76.10
8103;DHT22;4094;49.948;11.574;2023-03-14T00:55:37;13.40;76.20
8103;DHT22;4094;49.948;11.574;2023-03-14T00:58:07;13.30;76.20
8103;DHT22;4094;49.948;11.574;2023-03-14T01:00:37;13.30;76.30
8103;DHT22;4094;49.948;11.574;2023-03-14T01:03:07;13.30;76.40
8103;DHT22;4094;49.948;11.574;2023-03-14T01:05:37;13.20;76.30
8103;DHT22;4094;49.948;11.574;2023-03-14T01:08:07;13.20;76.40
8103;DHT22;4094;49.948;11.574;2023-03-14T01:10:38;13.20;76.50
8103;DHT22;4094;49.948;11.574;2023-03-14T01:13:07;13.20;76.60
8103;DHT22;4094;49.948;11.574;2023-03-14T01:15:38;13.20;76.60
8103;DHT22;4094;49.948;11.574;2023-03-14T01:18:10;13.20;76.60
8103;DHT22;4094;49.948;11.574;2023-03-14T01:20:39;13.20;76.30
8103;DHT22;4094;49.948;11.574;2023-03-14T01:23:08;13.20;76.10
8103;DHT22;4094;49.948;11.574;2023-03-14T01:25:41;13.20;75.90
8103;DHT22;4094;49.948;11.574;2023-03-14T01:28:11;13.20;76.00
8103;DHT22;4094;49.948;11.574;2023-03-14T01:30:42;13.10;75.90
8103;DHT22;4094;49.948;11.574;2023-03-14T01:33:12;13.10;75.80
8103;DHT22;4094;49.948;11.574;2023-03-14T01:35:44;13.10;75.80
8103;DHT22;4094;49.948;11.574;2023-03-14T01:38:14;13.10;75.70
8103;DHT22;4094;49.948;11.574;2023-03-14T01:40:44;13.10;75.70
8103;DHT22;4094;49.948;11.574;2023-03-14T01:43:16;13.10;75.00
8103;DHT22;4094;49.948;11.574;2023-03-14T01:46:12;13.10;74.90
8103;DHT22;4094;49.948;11.574;2023-03-14T01:48:46;13.00;74.90
8103;DHT22;4094;49.948;11.574;2023-03-14T01:51:18;13.00;74.70
8103;DHT22;4094;49.948;11.574;2023-03-14T01:53:49;13.00;74.70
8103;DHT22;4094;49.948;11.574;2023-03-14T01:56:19;13.00;74.90
8103;DHT22;4094;49.948;11.574;2023-03-14T01:58:51;13.00;74.90
8103;DHT22;4094;49.948;11.574;2023-03-14T02:01:24;13.00;74.80
8103;DHT22;4094;49.948;11.574;2023-03-14T02:03:55;13.00;74.80
8103;DHT22;4094;49.948;11.574;2023-03-14T02:06:30;13.00;74.70
8103;DHT22;4094;49.948;11.574;2023-03-14T02:09:02;13.00;74.70
8103;DHT22;4094;49.948;11.574;2023-03-14T02:11:34;13.00;74.40
8103;DHT22;4094;49.948;11.574;2023-03-14T02:14:09;13.10;74.40
8103;DHT22;4094;49.948;11.574;2023-03-14T02:17:04;13.10;74.10
8103;DHT22;4094;49.948;11.574;2023-03-14T02:20:08;13.00;74.20
8103;DHT22;4094;49.948;11.574;2023-03-14T02:22:44;13.10;74.30
8103;DHT22;4094;49.948;11.574;2023-03-14T02:25:17;13.00;73.90
8103;DHT22;4094;49.948;11.574;2023-03-14T02:27:50;13.00;73.90
8103;DHT22;4094;49.948;11.574;2023-03-14T02:30:21;13.00;74.00
8103;DHT22;4094;49.948;11.574;2023-03-14T02:32:53;13.00;73.90
8103;DHT22;4094;49.948;11.574;2023-03-14T02:35:27;13.00;73.70
8103;DHT22;4094;49.948;11.574;2023-03-14T02:38:00;13.00;73.70
8103;DHT22;4094;49.948;11.574;2023-03-14T02:40:36;13.00;73.70
8103;DHT22;4094;49.948;11.574;2023-03-14T02:43:06;13.00;73.60
8103;DHT22;4094;49.948;11.574;2023-03-14T02:45:44;12.90;73.70
8103;DHT22;4094;49.948;11.574;2023-03-14T02:48:19;12.90;73.90
8103;DHT22;4094;49.948;11.574;2023-03-14T02:50:52;12.90;73.90
8103;DHT22;4094;49.948;11.574;2023-03-14T02:53:25;12.90;73.90
8103;DHT22;4094;49.948;11.574;2023-03-14T02:55:58;12.90;73.90
8103;DHT22;4094;49.948;11.574;2023-03-14T02:58:29;12.90;73.90
8103;DHT22;4094;49.948;11.574;2023-03-14T03:01:06;12.90;73.90
8103;DHT22;4094;49.948;11.574;2023-03-14T03:03:35;12.90;73.80
8103;DHT22;4094;49.948;11.574;2023-03-14T03:06:05;12.90;73.70
8103;DHT22;4094;49.948;11.574;2023-03-14T03:08:35;12.90;73.80
8103;DHT22;4094;49.948;11.574;2023-03-14T03:11:05;12.90;73.90
8103;DHT22;4094;49.948;11.574;2023-03-14T03:13:36;12.90;74.10
8103;DHT22;4094;49.948;11.574;2023-03-14T03:16:08;12.90;74.00
8103;DHT22;4094;49.948;11.574;2023-03-14T03:18:37;13.00;74.10
8103;DHT22;4094;49.948;11.574;2023-03-14T03:21:06;13.00;74.00
8103;DHT22;4094;49.948;11.574;2023-03-14T03:23:37;13.00;73.90
8103;DHT22;4094;49.948;11.574;2023-03-14T03:26:06;13.00;73.80
8103;DHT22;4094;49.948;11.574;2023-03-14T03:28:39;13.10;73.90
8103;DHT22;4094;49.948;11.574;2023-03-14T03:31:09;13.00;73.70
8103;DHT22;4094;49.948;11.574;2023-03-14T03:33:39;13.10;73.80
8103;DHT22;4094;49.948;11.574;2023-03-14T03:36:10;13.10;73.70
8103;DHT22;4094;49.948;11.574;2023-03-14T03:38:40;13.10;73.50
8103;DHT22;4094;49.948;11.574;2023-03-14T03:41:09;13.00;73.40
8103;DHT22;4094;49.948;11.574;2023-03-14T03:43:41;13.00;73.40
8103;DHT22;4094;49.948;11.574;2023-03-14T03:46:12;13.00;73.40
8103;DHT22;4094;49.948;11.574;2023-03-14T03:48:41;13.00;73.60
8103;DHT22;4094;49.948;11.574;2023-03-14T03:51:12;13.00;73.60
8103;DHT22;4094;49.948;11.574;2023-03-14T03:53:42;13.00;73.60
8103;DHT22;4094;49.948;11.574;2023-03-14T03:56:14;13.00;73.60
8103;DHT22;4094;49.948;11.574;2023-03-14T03:58:45;13.00;73.70
8103;DHT22;4094;49.948;11.574;2023-03-14T04:01:15;13.00;73.40
8103;DHT22;4094;49.948;11.574;2023-03-14T04:03:48;13.00;73.30
8103;DHT22;4094;49.948;11.574;2023-03-14T04:06:18;13.00;73.30
8103;DHT22;4094;49.948;11.574;2023-03-14T04:08:49;13.00;73.30
8103;DHT22;4094;49.948;11.574;2023-03-14T04:11:35;13.00;73.30
8103;DHT22;4094;49.948;11.574;2023-03-14T04:14:24;13.00;73.20
8103;DHT22;4094;49.948;11.574;2023-03-14T04:17:07;13.00;73.10
8103;DHT22;4094;49.948;11.574;2023-03-14T04:19:36;13.00;73.10
8103;DHT22;4094;49.948;11.574;2023-03-14T04:22:06;12.90;73.10
8103;DHT22;4094;49.948;11.574;2023-03-14T04:24:45;12.90;73.20
8103;DHT22;4094;49.948;11.574;2023-03-14T04:27:14;12.90;73.30
8103;DHT22;4094;49.948;11.574;2023-03-14T04:29:46;12.90;73.10
8103;DHT22;4094;49.948;11.574;2023-03-14T04:32:19;12.90;73.20
8103;DHT22;4094;49.948;11.574;2023-03-14T04:34:48;12.80;73.40
8103;DHT22;4094;49.948;11.574;2023-03-14T04:37:17;12.80;73.30
8103;DHT22;4094;49.948;11.574;2023-03-14T04:39:47;12.80;73.40
8103;DHT22;4094;49.948;11.574;2023-03-14T04:42:22;12.80;73.40
8103;DHT22;4094;49.948;11.574;2023-03-14T04:44:52;12.80;74.10
8103;DHT22;4094;49.948;11.574;2023-03-14T04:47:24;12.80;73.30
8103;DHT22;4094;49.948;11.574;2023-03-14T04:49:54;12.80;73.40
8103;DHT22;4094;49.948;11.574;2023-03-14T04:52:26;12.80;73.40
8103;DHT22;4094;49.948;11.574;2023-03-14T04:54:55;12.80;73.50
8103;DHT22;4094;49.948;11.574;2023-03-14T04:57:26;12.80;73.50
8103;DHT22;4094;49.948;11.574;2023-03-14T04:59:57;12.80;73.50
8103;DHT22;4094;49.948;11.574;2023-03-14T05:02:48;12.80;73.40
8103;DHT22;4094;49.948;11.574;2023-03-14T05:05:26;12.80;73.40
8103;DHT22;4094;49.948;11.574;2023-03-14T05:08:02;12.90;73.60
8103;DHT22;4094;49.948;11.574;2023-03-14T05:10:53;12.90;73.40
8103;DHT22;4094;49.948;11.574;2023-03-14T05:13:41;12.90;73.40
8103;DHT22;4094;49.948;11.574;2023-03-14T05:16:26;12.90;73.30
8103;DHT22;4094;49.948;11.574;2023-03-14T05:19:14;12.90;73.30
8103;DHT22;4094;49.948;11.574;2023-03-14T05:22:03;12.90;73.10
8103;DHT22;4094;49.948;11.574;2023-03-14T05:24:46;12.90;73.10
8103;DHT22;4094;49.948;11.574;2023-03-14T05:27:31;12.90;73.10
8103;DHT22;4094;49.948;11.574;2023-03-14T05:30:21;12.90;72.90
8103;DHT22;4094;49.948;11.574;2023-03-14T05:33:10;12.90;72.90
8103;DHT22;4094;49.948;11.574;2023-03-14T05:36:03;12.90;72.70
8103;DHT22;4094;49.948;11.574;2023-03-14T05:39:00;12.90;73.00
8103;DHT22;4094;49.948;11.574;2023-03-14T05:41:56;12.90;72.90
8103;DHT22;4094;49.948;11.574;2023-03-14T05:44:43;12.90;72.80
8103;DHT22;4094;49.948;11.574;2023-03-14T05:47:30;12.90;72.80
8103;DHT22;4094;49.948;11.574;2023-03-14T05:50:19;12.90;72.60
8103;DHT22;4094;49.948;11.574;2023-03-14T05:53:11;12.90;72.60
8103;DHT22;4094;49.948;11.574;2023-03-14T05:55:51;12.90;72.70
8103;DHT22;4094;49.948;11.574;2023-03-14T05:58:44;12.90;72.70
8103;DHT22;4094;49.948;11.574;2023-03-14T06:01:30;12.90;72.70
8103;DHT22;4094;49.948;11.574;2023-03-14T06:04:14;12.90;72.50
8103;DHT22;4094;49.948;11.574;2023-03-14T06:06:49;13.00;72.40
8103;DHT22;4094;49.948;11.574;2023-03-14T06:09:18;12.90;72.20
8103;DHT22;4094;49.948;11.574;2023-03-14T06:11:51;12.90;72.30
8103;DHT22;4094;49.948;11.574;2023-03-14T06:14:21;12.90;72.00
8103;DHT22;4094;49.948;11.574;2023-03-14T06:16:51;12.90;72.10
8103;DHT22;4094;49.948;11.574;2023-03-14T06:19:23;12.90;72.70
8103;DHT22;4094;49.948;11.574;2023-03-14T06:21:54;12.90;72.00
8103;DHT22;4094;49.948;11.574;2023-03-14T06:24:25;12.90;72.10
8103;DHT22;4094;49.948;11.574;2023-03-14T06:26:54;12.90;72.10
8103;DHT22;4094;49.948;11.574;2023-03-14T06:29:24;12.90;72.00
8103;DHT22;4094;49.948;11.574;2023-03-14T06:31:53;12.80;71.80
8103;DHT22;4094;49.948;11.574;2023-03-14T06:34:24;12.80;71.80
8103;DHT22;4094;49.948;11.574;2023-03-14T06:36:56;12.80;71.90
8103;DHT22;4094;49.948;11.574;2023-03-14T06:39:25;12.80;72.10
8103;DHT22;4094;49.948;11.574;2023-03-14T06:42:03;12.80;72.10
8103;DHT22;4094;49.948;11.574;2023-03-14T06:44:32;12.80;72.10
8103;DHT22;4094;49.948;11.574;2023-03-14T06:47:02;12.80;71.70
8103;DHT22;4094;49.948;11.574;2023-03-14T06:49:32;12.80;72.10
8103;DHT22;4094;49.948;11.574;2023-03-14T06:52:04;12.80;71.80
8103;DHT22;4094;49.948;11.574;2023-03-14T06:54:33;12.80;71.80
8103;DHT22;4094;49.948;11.574;2023-03-14T06:57:03;12.80;71.80
8103;DHT22;4094;49.948;11.574;2023-03-14T06:59:32;12.80;71.90
8103;DHT22;4094;49.948;11.574;2023-03-14T07:02:02;12.80;71.80
8103;DHT22;4094;49.948;11.574;2023-03-14T07:04:31;12.80;71.80
8103;DHT22;4094;49.948;11.574;2023-03-14T07:07:00;12.80;71.90
8103;DHT22;4094;49.948;11.574;2023-03-14T07:09:34;12.80;71.80
8103;DHT22;4094;49.948;11.574;2023-03-14T07:12:05;12.80;71.80
8103;DHT22;4094;49.948;11.574;2023-03-14T07:14:34;12.80;71.90
8103;DHT22;4094;49.948;11.574;2023-03-14T07:17:03;12.90;72.00
8103;DHT22;4094;49.948;11.574;2023-03-14T07:19:32;13.00;71.50
8103;DHT22;4094;49.948;11.574;2023-03-14T07:22:01;12.90;70.80
8103;DHT22;4094;49.948;11.574;2023-03-14T07:24:30;12.90;71.40
8103;DHT22;4094;49.948;11.574;2023-03-14T07:27:02;12.90;71.50
8103;DHT22;4094;49.948;11.574;2023-03-14T07:29:31;12.90;71.50
8103;DHT22;4094;49.948;11.574;2023-03-14T07:32:03;12.90;71.40
8103;DHT22;4094;49.948;11.574;2023-03-14T07:34:32;13.00;71.30
8103;DHT22;4094;49.948;11.574;2023-03-14T07:37:02;13.00;71.80
8103;DHT22;4094;49.948;11.574;2023-03-14T07:39:33;13.00;71.10
8103;DHT22;4094;49.948;11.574;2023-03-14T07:42:09;13.00;70.70
8103;DHT22;4094;49.948;11.574;2023-03-14T07:44:57;13.00;70.80
8103;DHT22;4094;49.948;11.574;2023-03-14T07:47:26;13.00;70.90
8103;DHT22;4094;49.948;11.574;2023-03-14T07:49:55;13.10;70.80
8103;DHT22;4094;49.948;11.574;2023-03-14T07:52:24;13.10;70.60
8103;DHT22;4094;49.948;11.574;2023-03-14T07:54:54;13.10;70.30
8103;DHT22;4094;49.948;11.574;2023-03-14T07:57:24;13.10;70.40
8103;DHT22;4094;49.948;11.574;2023-03-14T07:59:53;13.10;70.10
8103;DHT22;4094;49.948;11.574;2023-03-14T08:02:22;13.20;70.80
8103;DHT22;4094;49.948;11.574;2023-03-14T08:04:51;13.30;70.60
8103;DHT22;4094;49.948;11.574;2023-03-14T08:07:20;13.40;70.70
8103;DHT22;4094;49.948;11.574;2023-03-14T08:09:49;13.40;70.10
8103;DHT22;4094;49.948;11.574;2023-03-14T08:12:18;13.40;69.90
8103;DHT22;4094;49.948;11.574;2023-03-14T08:14:49;13.50;70.20
8103;DHT22;4094;49.948;11.574;2023-03-14T08:17:18;13.50;69.30
8103;DHT22;4094;49.948;11.574;2023-03-14T08:19:47;13.60;69.60
8103;DHT22;4094;49.948;11.574;2023-03-14T08:22:16;13.60;69.80
8103;DHT22;4094;49.948;11.574;2023-03-14T08:24:46;13.70;69.50
8103;DHT22;4094;49.948;11.574;2023-03-14T08:27:15;13.80;69.00
8103;DHT22;4094;49.948;11.574;2023-03-14T08:29:44;13.90;68.70
8103;DHT22;4094;49.948;11.574;2023-03-14T08:32:15;13.90;68.20
8103;DHT22;4094;49.948;11.574;2023-03-14T08:34:44;14.00;68.90
8103;DHT22;4094;49.948;11.574;2023-03-14T08:37:13;14.10;69.00
8103;DHT22;4094;49.948;11.574;2023-03-14T08:39:53;14.30;68.60
8103;DHT22;4094;49.948;11.574;2023-03-14T08:42:22;14.50;68.50
8103;DHT22;4094;49.948;11.574;2023-03-14T08:44:52;14.50;65.90
8103;DHT22;4094;49.948;11.574;2023-03-14T08:47:22;14.50;65.90
8103;DHT22;4094;49.948;11.574;2023-03-14T08:49:51;14.50;66.10
8103;DHT22;4094;49.948;11.574;2023-03-14T08:52:20;14.50;66.50
8103;DHT22;4094;49.948;11.574;2023-03-14T08:54:49;14.50;66.10
8103;DHT22;4094;49.948;11.574;2023-03-14T08:57:17;14.50;65.50
8103;DHT22;4094;49.948;11.574;2023-03-14T08:59:46;14.40;65.70
8103;DHT22;4094;49.948;11.574;2023-03-14T09:02:16;14.50;66.30
8103;DHT22;4094;49.948;11.574;2023-03-14T09:04:46;14.50;66.20
8103;DHT22;4094;49.948;11.574;2023-03-14T09:07:15;14.50;64.80
8103;DHT22;4094;49.948;11.574;2023-03-14T09:09:44;14.60;65.60
8103;DHT22;4094;49.948;11.574;2023-03-14T09:12:13;14.60;65.70
8103;DHT22;4094;49.948;11.574;2023-03-14T09:14:42;14.60;65.70
8103;DHT22;4094;49.948;11.574;2023-03-14T09:17:11;14.70;65.50
8103;DHT22;4094;49.948;11.574;2023-03-14T09:19:40;14.70;65.70
8103;DHT22;4094;49.948;11.574;2023-03-14T09:22:10;14.80;65.10
8103;DHT22;4094;49.948;11.574;2023-03-14T09:24:40;14.80;64.10
8103;DHT22;4094;49.948;11.574;2023-03-14T09:27:09;14.80;64.40
8103;DHT22;4094;49.948;11.574;2023-03-14T09:29:38;14.80;64.50
8103;DHT22;4094;49.948;11.574;2023-03-14T09:32:07;14.80;64.40
8103;DHT22;4094;49.948;11.574;2023-03-14T09:34:36;14.80;64.50
8103;DHT22;4094;49.948;11.574;2023-03-14T09:37:05;14.90;64.50
8103;DHT22;4094;49.948;11.574;2023-03-14T09:39:36;14.90;63.60
8103;DHT22;4094;49.948;11.574;2023-03-14T09:42:08;14.90;63.90
8103;DHT22;4094;49.948;11.574;2023-03-14T09:44:48;14.90;63.60
8103;DHT22;4094;49.948;11.574;2023-03-14T09:47:21;14.90;64.40
8103;DHT22;4094;49.948;11.574;2023-03-14T09:49:51;14.90;63.60
8103;DHT22;4094;49.948;11.574;2023-03-14T09:52:23;14.90;63.20
8103;DHT22;4094;49.948;11.574;2023-03-14T09:54:57;14.90;63.10
8103;DHT22;4094;49.948;11.574;2023-03-14T09:57:28;14.90;63.40
8103;DHT22;4094;49.948;11.574;2023-03-14T10:00:02;14.90;63.40
8103;DHT22;4094;49.948;11.574;2023-03-14T10:02:41;14.90;63.20
8103;DHT22;4094;49.948;11.574;2023-03-14T10:05:14;14.90;63.20
8103;DHT22;4094;49.948;11.574;2023-03-14T10:07:44;14.90;63.60
8103;DHT22;4094;49.948;11.574;2023-03-14T10:10:17;14.90;63.70
8103;DHT22;4094;49.948;11.574;2023-03-14T10:12:49;14.90;63.70
8103;DHT22;4094;49.948;11.574;2023-03-14T10:15:25;14.90;63.90
8103;DHT22;4094;49.948;11.574;2023-03-14T10:17:55;14.90;64.60
8103;DHT22;4094;49.948;11.574;2023-03-14T10:20:31;14.80;65.00
8103;DHT22;4094;49.948;11.574;2023-03-14T10:23:05;14.80;65.50
8103;DHT22;4094;49.948;11.574;2023-03-14T10:25:37;14.80;66.00
8103;DHT22;4094;49.948;11.574;2023-03-14T10:28:22;14.80;66.30
8103;DHT22;4094;49.948;11.574;2023-03-14T10:30:52;14.80;66.40
8103;DHT22;4094;49.948;11.574;2023-03-14T10:33:23;14.80;66.50
8103;DHT22;4094;49.948;11.574;2023-03-14T10:35:54;14.80;67.00
8103;DHT22;4094;49.948;11.574;2023-03-14T10:38:27;14.70;67.30
8103;DHT22;4094;49.948;11.574;2023-03-14T10:40:58;14.70;67.50
8103;DHT22;4094;49.948;11.574;2023-03-14T10:43:32;14.80;67.60
8103;DHT22;4094;49.948;11.574;2023-03-14T10:46:08;14.80;67.80
8103;DHT22;4094;49.948;11.574;2023-03-14T10:48:57;14.80;67.80
8103;DHT22;4094;49.948;11.574;2023-03-14T10:51:28;14.80;68.00
8103;DHT22;4094;49.948;11.574;2023-03-14T10:54:00;14.80;67.80
8103;DHT22;4094;49.948;11.574;2023-03-14T10:56:36;14.90;67.40
8103;DHT22;4094;49.948;11.574;2023-03-14T10:59:10;14.90;66.80
8103;DHT22;4094;49.948;11.574;2023-03-14T11:01:43;14.80;66.30
8103;DHT22;4094;49.948;11.574;2023-03-14T11:04:24;14.70;66.00
8103;DHT22;4094;49.948;11.574;2023-03-14T11:06:59;14.70;66.20
8103;DHT22;4094;49.948;11.574;2023-03-14T11:09:34;14.60;66.30
8103;DHT22;4094;49.948;11.574;2023-03-14T11:12:15;14.60;66.80
8103;DHT22;4094;49.948;11.574;2023-03-14T11:14:48;14.70;66.60
8103;DHT22;4094;49.948;11.574;2023-03-14T11:17:24;14.70;66.60
8103;DHT22;4094;49.948;11.574;2023-03-14T11:20:07;14.70;66.70
8103;DHT22;4094;49.948;11.574;2023-03-14T11:22:46;14.70;66.30
8103;DHT22;4094;49.948;11.574;2023-03-14T11:25:21;14.80;66.30
8103;DHT22;4094;49.948;11.574;2023-03-14T11:28:04;14.80;66.30
8103;DHT22;4094;49.948;11.574;2023-03-14T11:30:42;14.80;65.70
8103;DHT22;4094;49.948;11.574;2023-03-14T11:33:16;14.80;65.20
8103;DHT22;4094;49.948;11.574;2023-03-14T11:35:51;14.80;65.10
8103;DHT22;4094;49.948;11.574;2023-03-14T11:38:29;14.80;66.10
8103;DHT22;4094;49.948;11.574;2023-03-14T11:40:59;14.80;65.00
8103;DHT22;4094;49.948;11.574;2023-03-14T11:43:32;14.80;64.90
8103;DHT22;4094;49.948;11.574;2023-03-14T11:46:08;14.70;65.00
8103;DHT22;4094;49.948;11.574;2023-03-14T11:48:42;14.80;65.50
8103;DHT22;4094;49.948;11.574;2023-03-14T11:51:17;14.80;65.20
8103;DHT22;4094;49.948;11.574;2023-03-14T11:53:53;14.70;65.40
8103;DHT22;4094;49.948;11.574;2023-03-14T11:56:29;14.70;65.50
8103;DHT22;4094;49.948;11.574;2023-03-14T11:59:05;14.60;65.50
8103;DHT22;4094;49.948;11.574;2023-03-14T12:01:50;14.60;65.30
8103;DHT22;4094;49.948;11.574;2023-03-14T12:04:40;14.60;65.60
8103;DHT22;4094;49.948;11.574;2023-03-14T12:07:17;14.60;66.00
8103;DHT22;4094;49.948;11.574;2023-03-14T12:09:49;14.70;66.00
8103;DHT22;4094;49.948;11.574;2023-03-14T12:12:20;14.70;66.00
8103;DHT22;4094;49.948;11.574;2023-03-14T12:14:57;14.80;66.00
8103;DHT22;4094;49.948;11.574;2023-03-14T12:17:34;14.90;65.20
8103;DHT22;4094;49.948;11.574;2023-03-14T12:20:06;14.90;64.40
8103;DHT22;4094;49.948;11.574;2023-03-14T12:22:45;14.90;64.60
8103;DHT22;4094;49.948;11.574;2023-03-14T12:25:17;14.90;64.70
8103;DHT22;4094;49.948;11.574;2023-03-14T12:28:04;14.90;64.90
8103;DHT22;4094;49.948;11.574;2023-03-14T12:30:36;15.00;64.70
8103;DHT22;4094;49.948;11.574;2023-03-14T12:33:29;15.00;64.20
8103;DHT22;4094;49.948;11.574;2023-03-14T12:39:10;15.10;64.10
8103;DHT22;4094;49.948;11.574;2023-03-14T12:41:44;15.10;63.80
8103;DHT22;4094;49.948;11.574;2023-03-14T12:44:43;15.20;64.10
8103;DHT22;4094;49.948;11.574;2023-03-14T12:47:54;15.20;63.50
8103;DHT22;4094;49.948;11.574;2023-03-14T12:50:27;15.30;64.10
8103;DHT22;4094;49.948;11.574;2023-03-14T12:53:17;15.40;62.70
8103;DHT22;4094;49.948;11.574;2023-03-14T12:55:56;15.40;62.80
8103;DHT22;4094;49.948;11.574;2023-03-14T12:58:30;15.50;62.50
8103;DHT22;4094;49.948;11.574;2023-03-14T13:01:01;15.50;62.10
8103;DHT22;4094;49.948;11.574;2023-03-14T13:03:39;15.50;62.10
8103;DHT22;4094;49.948;11.574;2023-03-14T13:06:11;15.50;61.50
8103;DHT22;4094;49.948;11.574;2023-03-14T13:08:42;15.60;61.80
8103;DHT22;4094;49.948;11.574;2023-03-14T13:11:15;15.50;61.50
8103;DHT22;4094;49.948;11.574;2023-03-14T13:13:47;15.50;61.40
8103;DHT22;4094;49.948;11.574;2023-03-14T13:16:18;15.50;61.80
8103;DHT22;4094;49.948;11.574;2023-03-14T13:18:51;15.50;61.70
8103;DHT22;4094;49.948;11.574;2023-03-14T13:21:34;15.50;62.10
8103;DHT22;4094;49.948;11.574;2023-03-14T13:24:06;15.50;62.40
8103;DHT22;4094;49.948;11.574;2023-03-14T13:26:39;15.50;62.70
8103;DHT22;4094;49.948;11.574;2023-03-14T13:29:16;15.50;62.60
8103;DHT22;4094;49.948;11.574;2023-03-14T13:31:47;15.50;62.00
8103;DHT22;4094;49.948;11.574;2023-03-14T13:34:18;15.50;61.70
8103;DHT22;4094;49.948;11.574;2023-03-14T13:36:47;15.50;61.80
8103;DHT22;4094;49.948;11.574;2023-03-14T13:39:18;15.50;62.10
8103;DHT22;4094;49.948;11.574;2023-03-14T13:41:49;15.50;62.50
8103;DHT22;4094;49.948;11.574;2023-03-14T13:44:29;15.50;62.70
8103;DHT22;4094;49.948;11.574;2023-03-14T13:46:59;15.50;63.10
8103;DHT22;4094;49.948;11.574;2023-03-14T13:49:32;15.40;63.40
8103;DHT22;4094;49.948;11.574;2023-03-14T13:52:20;15.40;63.90
8103;DHT22;4094;49.948;11.574;2023-03-14T13:54:53;15.30;64.20
8103;DHT22;4094;49.948;11.574;2023-03-14T13:57:22;15.30;64.60
8103;DHT22;4094;49.948;11.574;2023-03-14T13:59:59;15.30;64.60
8103;DHT22;4094;49.948;11.574;2023-03-14T14:02:32;15.20;64.70
8103;DHT22;4094;49.948;11.574;2023-03-14T14:05:03;15.20;64.50
8103;DHT22;4094;49.948;11.574;2023-03-14T14:07:33;15.10;64.20
8103;DHT22;4094;49.948;11.574;2023-03-14T14:10:02;15.00;64.20
8103;DHT22;4094;49.948;11.574;2023-03-14T14:12:34;15.00;64.50
8103;DHT22;4094;49.948;11.574;2023-03-14T14:15:09;14.90;64.70
8103;DHT22;4094;49.948;11.574;2023-03-14T14:17:43;14.80;65.00
8103;DHT22;4094;49.948;11.574;2023-03-14T14:20:20;14.80;65.10
8103;DHT22;4094;49.948;11.574;2023-03-14T14:22:51;14.70;65.30
8103;DHT22;4094;49.948;11.574;2023-03-14T14:25:21;14.60;65.50
8103;DHT22;4094;49.948;11.574;2023-03-14T14:27:50;14.50;65.70
8103;DHT22;4094;49.948;11.574;2023-03-14T14:30:29;14.50;66.20
8103;DHT22;4094;49.948;11.574;2023-03-14T14:33:17;14.40;66.50
8103;DHT22;4094;49.948;11.574;2023-03-14T14:35:55;14.30;66.80
8103;DHT22;4094;49.948;11.574;2023-03-14T14:38:25;14.20;67.10
8103;DHT22;4094;49.948;11.574;2023-03-14T14:40:59;14.20;67.30
8103;DHT22;4094;49.948;11.574;2023-03-14T14:43:33;14.20;67.70
8103;DHT22;4094;49.948;11.574;2023-03-14T14:46:06;14.10;68.00
8103;DHT22;4094;49.948;11.574;2023-03-14T14:48:37;14.10;68.00
8103;DHT22;4094;49.948;11.574;2023-03-14T14:51:08;14.10;68.40
8103;DHT22;4094;49.948;11.574;2023-03-14T14:53:39;14.00;68.50
8103;DHT22;4094;49.948;11.574;2023-03-14T14:56:16;14.00;68.80
8103;DHT22;4094;49.948;11.574;2023-03-14T14:58:47;14.00;69.10
8103;DHT22;4094;49.948;11.574;2023-03-14T15:01:19;14.00;69.10
8103;DHT22;4094;49.948;11.574;2023-03-14T15:03:51;13.90;69.30
8103;DHT22;4094;49.948;11.574;2023-03-14T15:06:23;13.90;69.30
8103;DHT22;4094;49.948;11.574;2023-03-14T15:08:54;13.80;69.10
8103;DHT22;4094;49.948;11.574;2023-03-14T15:11:25;13.80;68.40
8103;DHT22;4094;49.948;11.574;2023-03-14T15:13:54;13.70;67.90
8103;DHT22;4094;49.948;11.574;2023-03-14T15:16:28;13.60;67.60
8103;DHT22;4094;49.948;11.574;2023-03-14T15:18:59;13.60;67.60
8103;DHT22;4094;49.948;11.574;2023-03-14T15:21:39;13.50;67.50
8103;DHT22;4094;49.948;11.574;2023-03-14T15:24:09;13.50;67.60
8103;DHT22;4094;49.948;11.574;2023-03-14T15:26:38;13.40;67.60
8103;DHT22;4094;49.948;11.574;2023-03-14T15:29:09;13.40;67.50
8103;DHT22;4094;49.948;11.574;2023-03-14T15:31:40;13.30;67.00
8103;DHT22;4094;49.948;11.574;2023-03-14T15:34:10;13.20;66.60
8103;DHT22;4094;49.948;11.574;2023-03-14T15:36:41;13.20;65.90
8103;DHT22;4094;49.948;11.574;2023-03-14T15:39:10;13.10;66.40
8103;DHT22;4094;49.948;11.574;2023-03-14T15:41:40;13.10;66.60
8103;DHT22;4094;49.948;11.574;2023-03-14T15:44:09;13.00;66.10
8103;DHT22;4094;49.948;11.574;2023-03-14T15:46:38;12.90;65.90
8103;DHT22;4094;49.948;11.574;2023-03-14T15:49:08;12.80;66.10
8103;DHT22;4094;49.948;11.574;2023-03-14T15:51:37;12.80;66.50
8103;DHT22;4094;49.948;11.574;2023-03-14T15:54:07;12.70;66.00
8103;DHT22;4094;49.948;11.574;2023-03-14T15:56:37;12.70;66.00
8103;DHT22;4094;49.948;11.574;2023-03-14T15:59:07;12.70;66.00
8103;DHT22;4094;49.948;11.574;2023-03-14T16:01:36;12.60;65.80
8103;DHT22;4094;49.948;11.574;2023-03-14T16:04:05;12.60;65.70
8103;DHT22;4094;49.948;11.574;2023-03-14T16:06:34;12.60;65.90
8103;DHT22;4094;49.948;11.574;2023-03-14T16:09:04;12.60;66.20
8103;DHT22;4094;49.948;11.574;2023-03-14T16:11:35;12.60;66.30
8103;DHT22;4094;49.948;11.574;2023-03-14T16:14:04;12.50;66.10
8103;DHT22;4094;49.948;11.574;2023-03-14T16:16:33;12.50;66.00
8103;DHT22;4094;49.948;11.574;2023-03-14T16:19:02;12.50;65.90
8103;DHT22;4094;49.948;11.574;2023-03-14T16:21:33;12.50;65.80
8103;DHT22;4094;49.948;11.574;2023-03-14T16:24:03;12.50;66.20
8103;DHT22;4094;49.948;11.574;2023-03-14T16:26:35;12.50;66.10